createdAt,value
2018-12-29T00:01:34.598Z,99896.92
2018-12-29T00:04:06.248Z,99910.58
2018-12-29T00:06:37.725Z,99910.58
2018-12-29T00:09:09.290Z,99917.72
2018-12-29T00:11:40.622Z,99917.70
2018-12-29T00:14:12.507Z,99917.70
2018-12-29T00:16:44.305Z,99925.87
2018-12-29T00:19:15.816Z,99925.87
2018-12-29T00:21:47.075Z,99925.95
2018-12-29T00:24:19.002Z,99937.08
2018-12-29T00:26:50.514Z,99949.98
2018-12-29T00:29:22.539Z,99948.25
2018-12-29T00:31:54.086Z,99952.59
2018-12-29T00:34:25.763Z,99952.59
2018-12-29T00:36:57.134Z,99951.16
2018-12-29T00:39:29.035Z,99953.84
2018-12-29T00:42:00.234Z,99972.10
2018-12-29T00:44:31.660Z,99967.70
2018-12-29T00:47:02.991Z,99978.03
2018-12-29T00:49:34.358Z,99975.91
2018-12-29T00:52:06.626Z,99978.54
2018-12-29T00:54:38.240Z,99978.54
2018-12-29T00:57:09.543Z,99991.97
2018-12-29T00:59:41.661Z,100003.88
2018-12-29T01:02:12.866Z,100010.75
2018-12-29T01:04:44.567Z,100013.78
2018-12-29T01:07:15.719Z,100022.80
2018-12-29T01:09:47.297Z,100015.86
2018-12-29T01:12:18.492Z,100023.17
2018-12-29T01:14:49.739Z,100026.09
2018-12-29T01:17:21.595Z,100029.77
2018-12-29T01:19:53.241Z,100019.43
2018-12-29T01:22:24.671Z,100030.12
2018-12-29T01:24:56.399Z,100030.12
2018-12-29T01:27:27.558Z,100033.28
2018-12-29T01:30:00.299Z,100036.29
2018-12-29T01:32:32.807Z,100036.29
2018-12-29T01:35:04.608Z,100039.38
2018-12-29T01:37:35.775Z,100031.69
2018-12-29T01:40:07.505Z,100036.86
2018-12-29T01:42:39.062Z,100036.86
2018-12-29T01:45:17.138Z,100061.87
2018-12-29T01:47:43.661Z,100061.49
2018-12-29T01:50:14.965Z,100068.76
2018-12-29T01:52:46.321Z,100066.98
2018-12-29T01:55:17.781Z,100067.88
2018-12-29T01:57:49.017Z,100067.41
2018-12-29T02:00:21.268Z,100077.31
2018-12-29T02:02:52.586Z,100077.31
2018-12-29T02:05:23.931Z,100076.06
2018-12-29T02:07:55.047Z,100076.45
2018-12-29T02:10:26.571Z,100084.56
2018-12-29T02:12:57.684Z,100079.39
2018-12-29T02:15:29.841Z,100079.39
2018-12-29T02:18:01.630Z,100091.44
2018-12-29T02:20:33.225Z,100097.84
2018-12-29T02:23:04.276Z,100120.03
2018-12-29T02:25:36.061Z,100129.93
2018-12-29T02:28:07.660Z,100122.98
2018-12-29T02:30:39.985Z,100122.98
2018-12-29T02:33:11.448Z,100136.19
2018-12-29T02:35:42.935Z,100140.84
2018-12-29T02:38:13.958Z,100140.84
2018-12-29T02:40:45.296Z,100146.38
2018-12-29T02:43:16.464Z,100154.12
2018-12-29T02:45:47.806Z,100160.30
2018-12-29T02:48:19.224Z,100160.30
2018-12-29T02:50:50.788Z,100174.73
2018-12-29T02:53:22.055Z,100174.73
2018-12-29T02:55:53.506Z,100194.92
2018-12-29T02:58:25.706Z,100197.94
2018-12-29T03:00:58.092Z,100200.41
2018-12-29T03:03:29.673Z,100200.41
2018-12-29T03:06:01.605Z,100210.78
2018-12-29T03:08:37.377Z,100210.78
2018-12-29T03:11:08.986Z,100221.34
2018-12-29T03:13:40.529Z,100221.34
2018-12-29T03:16:12.093Z,100229.19
2018-12-29T03:18:45.106Z,100225.38
2018-12-29T03:21:16.491Z,100219.27
2018-12-29T03:23:47.715Z,100230.94
2018-12-29T03:26:19.310Z,100233.57
2018-12-29T03:28:51.010Z,100241.33
2018-12-29T03:31:22.862Z,100243.05
2018-12-29T03:33:54.271Z,100245.99
2018-12-29T03:36:25.710Z,100244.64
2018-12-29T03:38:56.887Z,100251.05
2018-12-29T03:41:28.755Z,100256.13
2018-12-29T03:44:00.310Z,100256.47
2018-12-29T03:46:32.102Z,100262.01
2018-12-29T03:49:03.662Z,100260.95
2018-12-29T03:51:35.774Z,100260.95
2018-12-29T03:54:07.175Z,100270.40
2018-12-29T03:56:42.034Z,100277.27
2018-12-29T03:59:13.535Z,100268.70
2018-12-29T04:01:45.430Z,100276.06
2018-12-29T04:04:16.857Z,100276.06
2018-12-29T04:06:48.529Z,100282.84
2018-12-29T04:09:36.243Z,100274.48
2018-12-29T04:12:22.206Z,100270.56
2018-12-29T04:14:53.804Z,100271.88
2018-12-29T04:17:25.390Z,100271.88
2018-12-29T04:19:57.042Z,100276.03
2018-12-29T04:22:28.701Z,100269.16
2018-12-29T04:25:00.384Z,100269.34
2018-12-29T04:27:32.070Z,100280.33
2018-12-29T04:30:03.421Z,100280.33
2018-12-29T04:32:35.529Z,100280.97
2018-12-29T04:35:07.183Z,100281.84
2018-12-29T04:37:38.804Z,100281.77
2018-12-29T04:40:10.025Z,100281.77
2018-12-29T04:42:41.510Z,100280.63
2018-12-29T04:45:13.001Z,100273.55
2018-12-29T04:47:44.371Z,100272.94
2018-12-29T04:50:15.782Z,100272.94
2018-12-29T04:52:47.345Z,100275.41
2018-12-29T04:55:18.546Z,100273.06
2018-12-29T04:57:49.983Z,100272.40
2018-12-29T05:00:21.446Z,100261.23
2018-12-29T05:02:53.615Z,100261.67
2018-12-29T05:05:25.224Z,100262.89
2018-12-29T05:07:56.797Z,100251.83
2018-12-29T05:10:28.061Z,100251.83
2018-12-29T05:12:59.510Z,100251.75
2018-12-29T05:15:30.839Z,100239.42
2018-12-29T05:18:02.692Z,100239.42
2018-12-29T05:20:34.576Z,100238.31
2018-12-29T05:23:06.340Z,100230.91
2018-12-29T05:25:37.586Z,100223.61
2018-12-29T05:28:09.247Z,100223.61
2018-12-29T05:30:40.733Z,100220.96
2018-12-29T05:33:12.522Z,100212.22
2018-12-29T05:35:43.942Z,100207.23
2018-12-29T05:38:15.788Z,100207.23
2018-12-29T05:40:47.184Z,100194.38
2018-12-29T05:43:18.658Z,100194.50
2018-12-29T05:45:50.225Z,100194.50
2018-12-29T05:48:22.065Z,100186.91
2018-12-29T05:50:53.275Z,100187.77
2018-12-29T05:53:24.892Z,100176.29
2018-12-29T05:55:56.214Z,100176.29
2018-12-29T05:58:27.982Z,100173.55
2018-12-29T06:00:59.508Z,100173.55
2018-12-29T06:03:31.368Z,100151.02
2018-12-29T06:06:05.236Z,100148.53
2018-12-29T06:08:37.671Z,100143.13
2018-12-29T06:11:09.077Z,100143.13
2018-12-29T06:13:41.152Z,100137.73
2018-12-29T06:16:12.223Z,100133.20
2018-12-29T06:18:50.448Z,100138.39
2018-12-29T06:21:24.399Z,100138.39
2018-12-29T06:23:56.374Z,100124.12
2018-12-29T06:26:27.910Z,100124.12
2018-12-29T06:28:59.444Z,100121.45
2018-12-29T06:31:30.566Z,100121.45
2018-12-29T06:34:02.505Z,100121.61
2018-12-29T06:36:33.712Z,100117.22
2018-12-29T06:39:11.303Z,100115.02
2018-12-29T06:41:42.839Z,100110.62
2018-12-29T06:44:14.209Z,100110.62
2018-12-29T06:46:45.726Z,100095.29
2018-12-29T06:49:17.479Z,100102.41
2018-12-29T06:51:49.098Z,100102.41
2018-12-29T06:54:21.792Z,100086.41
2018-12-29T06:56:56.266Z,100078.46
2018-12-29T06:59:27.795Z,100074.98
2018-12-29T07:01:59.023Z,100072.24
2018-12-29T07:04:34.155Z,100059.44
2018-12-29T07:07:12.587Z,100059.44
2018-12-29T07:09:44.822Z,100055.13
2018-12-29T07:12:21.181Z,100052.71
2018-12-29T07:14:57.630Z,100040.09
2018-12-29T07:17:30.369Z,100040.09
2018-12-29T07:20:01.727Z,100044.77
2018-12-29T07:22:34.473Z,100039.73
2018-12-29T07:25:07.251Z,100026.16
2018-12-29T07:27:38.448Z,100028.61
2018-12-29T07:30:11.581Z,100028.61
2018-12-29T07:32:43.176Z,100018.77
2018-12-29T07:35:16.918Z,100018.77
2018-12-29T07:37:48.712Z,100009.87
2018-12-29T07:40:20.171Z,100009.87
2018-12-29T07:42:51.519Z,99998.11
2018-12-29T07:45:23.014Z,99998.11
2018-12-29T07:47:54.250Z,99996.78
2018-12-29T07:50:25.536Z,99990.52
2018-12-29T07:52:57.129Z,99980.38
2018-12-29T07:55:29.346Z,99980.38
2018-12-29T07:58:00.743Z,99982.66
2018-12-29T08:00:31.887Z,99983.10
2018-12-29T08:03:03.318Z,99982.51
2018-12-29T08:05:35.021Z,99973.55
2018-12-29T08:08:06.221Z,99969.02
2018-12-29T08:10:38.822Z,99976.09
2018-12-29T08:13:10.672Z,99976.09
2018-12-29T08:15:42.192Z,99970.50
2018-12-29T08:18:14.637Z,99967.44
2018-12-29T08:20:46.430Z,99962.23
2018-12-29T08:23:17.560Z,99960.36
2018-12-29T08:25:49.262Z,99960.36
2018-12-29T08:28:23.598Z,99956.77
2018-12-29T08:30:55.424Z,99959.42
2018-12-29T08:33:26.896Z,99959.42
2018-12-29T08:36:04.993Z,99948.77
2018-12-29T08:38:37.451Z,99958.45
2018-12-29T08:41:09.021Z,99952.76
2018-12-29T08:43:40.249Z,99946.22
2018-12-29T08:46:11.938Z,99944.80
2018-12-29T08:48:44.667Z,99945.98
2018-12-29T08:51:15.733Z,99945.98
2018-12-29T08:53:47.756Z,99941.69
2018-12-29T08:56:19.149Z,99937.68
2018-12-29T08:58:50.372Z,99934.39
2018-12-29T09:01:21.528Z,99934.39
2018-12-29T09:03:52.871Z,99928.97
2018-12-29T09:06:24.516Z,99928.78
2018-12-29T09:08:55.958Z,99928.78
2018-12-29T09:14:46.306Z,99929.13
2018-12-29T09:17:19.131Z,99924.46
2018-12-29T09:20:08.542Z,99927.61
2018-12-29T09:22:41.836Z,99924.11
2018-12-29T09:25:13.254Z,99924.56
2018-12-29T09:27:45.321Z,99924.56
2018-12-29T09:30:17.032Z,99915.64
2018-12-29T09:32:48.237Z,99915.64
2018-12-29T09:35:19.415Z,99916.02
2018-12-29T09:37:51.463Z,99913.03
2018-12-29T09:40:23.174Z,99920.13
2018-12-29T09:42:55.962Z,99917.63
2018-12-29T09:45:27.914Z,99922.90
2018-12-29T09:47:59.636Z,99922.90
2018-12-29T09:50:32.177Z,99927.15
2018-12-29T09:53:03.583Z,99929.28
2018-12-29T09:55:35.178Z,99937.38
2018-12-29T09:58:06.402Z,99937.38
2018-12-29T10:00:37.867Z,99941.33
2018-12-29T10:03:09.387Z,99939.30
2018-12-29T10:05:43.031Z,99943.00
2018-12-29T10:08:16.068Z,99939.73
2018-12-29T10:10:48.527Z,99950.00
2018-12-29T10:13:21.970Z,99945.84
2018-12-29T10:15:53.448Z,99946.78
2018-12-29T10:18:24.971Z,99946.78
2018-12-29T10:20:56.262Z,99944.49
2018-12-29T10:23:27.814Z,99949.34
2018-12-29T10:25:59.034Z,99955.79
2018-12-29T10:28:30.216Z,99955.79
2018-12-29T10:31:01.746Z,99964.72
2018-12-29T10:33:32.924Z,99971.12
2018-12-29T10:36:04.211Z,99971.12
2018-12-29T10:38:37.021Z,99977.95
2018-12-29T10:41:08.509Z,99982.76
2018-12-29T10:43:39.777Z,99982.76
2018-12-29T10:46:11.156Z,99989.57
2018-12-29T10:48:42.768Z,99989.98
2018-12-29T10:51:14.022Z,100001.16
2018-12-29T10:53:45.601Z,99993.87
2018-12-29T10:56:16.830Z,99995.10
2018-12-29T10:58:48.378Z,99995.10
2018-12-29T11:01:20.029Z,99996.23
2018-12-29T11:03:51.225Z,99996.23
2018-12-29T11:06:22.541Z,100004.86
2018-12-29T11:08:54.588Z,100010.13
2018-12-29T11:11:26.344Z,100012.89
2018-12-29T11:13:57.725Z,100012.89
2018-12-29T11:16:31.219Z,100008.98
2018-12-29T11:19:02.645Z,100017.95
2018-12-29T11:21:33.793Z,100017.95
2018-12-29T11:24:05.369Z,100013.55
2018-12-29T11:26:36.731Z,100013.55
2018-12-29T11:29:08.025Z,100015.38
2018-12-29T11:31:39.687Z,100012.11
2018-12-29T11:34:11.371Z,100017.73
2018-12-29T11:36:42.772Z,100017.73
2018-12-29T11:39:14.615Z,100020.25
2018-12-29T11:41:45.917Z,100019.84
2018-12-29T11:44:17.588Z,100024.12
2018-12-29T11:46:49.338Z,100027.17
2018-12-29T11:49:20.930Z,100026.86
2018-12-29T11:51:52.960Z,100030.68
2018-12-29T11:54:25.292Z,100030.68
2018-12-29T11:56:57.256Z,100034.06
2018-12-29T11:59:28.653Z,100040.70
2018-12-29T12:02:00.083Z,100052.23
2018-12-29T12:04:32.162Z,100052.23
2018-12-29T12:07:03.745Z,100056.23
2018-12-29T12:09:36.020Z,100056.68
2018-12-29T12:12:07.442Z,100059.16
2018-12-29T12:14:39.117Z,100064.50
2018-12-29T12:17:10.868Z,100064.50
2018-12-29T12:19:42.368Z,100067.11
2018-12-29T12:22:13.900Z,100067.11
2018-12-29T12:24:45.377Z,100070.97
2018-12-29T12:27:17.068Z,100077.00
2018-12-29T12:29:49.018Z,100077.00
2018-12-29T12:32:21.124Z,100080.01
2018-12-29T12:34:53.360Z,100080.01
2018-12-29T12:37:24.679Z,100080.50
2018-12-29T12:39:56.849Z,100089.34
2018-12-29T12:42:28.597Z,100091.53
2018-12-29T12:45:00.223Z,100096.38
2018-12-29T12:47:31.784Z,100096.38
2018-12-29T12:50:03.553Z,100098.25
2018-12-29T12:52:35.308Z,100106.72
2018-12-29T12:55:06.821Z,100104.97
2018-12-29T12:57:38.186Z,100115.77
2018-12-29T13:00:10.357Z,100115.77
2018-12-29T13:02:42.875Z,100115.61
2018-12-29T13:05:14.228Z,100115.61
2018-12-29T13:07:45.592Z,100115.53
2018-12-29T13:10:16.972Z,100115.53
2018-12-29T13:12:48.600Z,100123.42
2018-12-29T13:15:21.747Z,100121.52
2018-12-29T13:17:53.410Z,100125.10
2018-12-29T13:20:25.141Z,100126.52
2018-12-29T13:22:57.257Z,100129.09
2018-12-29T13:25:29.150Z,100129.98
2018-12-29T13:28:01.361Z,100132.59
2018-12-29T13:30:32.837Z,100134.34
2018-12-29T13:33:04.918Z,100134.34
2018-12-29T13:35:36.477Z,100136.95
2018-12-29T13:38:08.184Z,100136.95
2018-12-29T13:40:41.069Z,100130.52
2018-12-29T13:43:12.646Z,100136.70
2018-12-29T13:45:44.339Z,100133.64
2018-12-29T13:48:20.506Z,100133.64
2018-12-29T13:50:49.374Z,100140.16
2018-12-29T13:53:20.950Z,100143.62
2018-12-29T13:55:52.273Z,100146.27
2018-12-29T13:58:23.861Z,100146.27
2018-12-29T14:00:55.774Z,100153.72
2018-12-29T14:03:27.661Z,100150.90
2018-12-29T14:05:59.304Z,100166.39
2018-12-29T14:08:31.256Z,100172.41
2018-12-29T14:11:03.314Z,100172.41
2018-12-29T14:13:35.130Z,100174.20
2018-12-29T14:16:07.102Z,100174.72
2018-12-29T14:18:39.510Z,100181.53
2018-12-29T14:21:11.845Z,100181.53
2018-12-29T14:23:44.491Z,100178.67
2018-12-29T14:26:16.074Z,100178.67
2018-12-29T14:28:47.809Z,100184.74
2018-12-29T14:31:19.459Z,100185.15
2018-12-29T14:33:51.047Z,100189.09
2018-12-29T14:36:23.133Z,100192.52
2018-12-29T14:38:54.363Z,100196.80
2018-12-29T14:41:26.412Z,100193.37
2018-12-29T14:43:57.706Z,100195.58
2018-12-29T14:46:29.418Z,100203.39
2018-12-29T14:49:00.992Z,100206.48
2018-12-29T14:51:32.461Z,100206.48
2018-12-29T14:54:03.728Z,100211.70
2018-12-29T14:56:35.306Z,100217.69
2018-12-29T14:59:07.160Z,100215.75
2018-12-29T15:01:38.844Z,100226.53
2018-12-29T15:04:10.061Z,100224.45
2018-12-29T15:06:41.575Z,100217.63
2018-12-29T15:09:12.927Z,100221.77
2018-12-29T15:11:44.754Z,100221.77
2018-12-29T15:14:17.149Z,100213.69
2018-12-29T15:16:49.495Z,100219.80
2018-12-29T15:19:22.925Z,100219.80
2018-12-29T15:21:54.477Z,100220.63
2018-12-29T15:24:26.261Z,100212.89
2018-12-29T15:26:57.728Z,100212.89
2018-12-29T15:29:29.206Z,100214.60
2018-12-29T15:32:00.648Z,100214.60
2018-12-29T15:34:32.610Z,100221.98
2018-12-29T15:37:04.059Z,100223.70
2018-12-29T15:39:35.612Z,100223.70
2018-12-29T15:42:07.501Z,100220.63
2018-12-29T15:44:38.720Z,100220.77
2018-12-29T15:47:10.440Z,100221.41
2018-12-29T15:49:41.968Z,100221.41
2018-12-29T15:52:13.445Z,100216.65
2018-12-29T15:54:45.369Z,100218.80
2018-12-29T15:57:16.862Z,100218.80
2018-12-29T15:59:48.862Z,100215.68
2018-12-29T16:02:20.366Z,100210.30
2018-12-29T16:04:53.865Z,100204.95
2018-12-29T16:07:26.151Z,100204.95
2018-12-29T16:09:57.481Z,100203.70
2018-12-29T16:12:29.194Z,100202.22
2018-12-29T16:15:00.613Z,100198.33
2018-12-29T16:17:32.367Z,100198.33
2018-12-29T16:20:03.908Z,100202.87
2018-12-29T16:22:35.223Z,100200.57
2018-12-29T16:25:06.803Z,100200.52
2018-12-29T16:27:38.552Z,100195.60
2018-12-29T16:30:10.482Z,100195.60
2018-12-29T16:32:42.373Z,100203.59
2018-12-29T16:35:14.261Z,100203.27
2018-12-29T16:37:45.744Z,100200.35
2018-12-29T16:40:16.969Z,100199.66
2018-12-29T16:42:48.977Z,100199.66
2018-12-29T16:45:20.409Z,100207.33
2018-12-29T16:47:51.742Z,100207.33
2018-12-29T16:50:23.156Z,100203.22
2018-12-29T16:52:54.580Z,100215.88
2018-12-29T16:55:25.899Z,100215.88
2018-12-29T16:57:57.484Z,100208.16
2018-12-29T17:00:29.344Z,100215.78
2018-12-29T17:03:01.182Z,100215.78
2018-12-29T17:05:32.716Z,100208.75
2018-12-29T17:08:04.481Z,100205.73
2018-12-29T17:10:36.164Z,100207.41
2018-12-29T17:13:08.141Z,100203.06
2018-12-29T17:15:39.658Z,100196.20
2018-12-29T17:18:11.470Z,100205.89
2018-12-29T17:20:43.194Z,100205.89
2018-12-29T17:23:14.655Z,100210.23
2018-12-29T17:25:46.182Z,100216.48
2018-12-29T17:28:17.580Z,100216.48
2018-12-29T17:30:49.107Z,100211.30
2018-12-29T17:33:20.467Z,100205.33
2018-12-29T17:35:52.784Z,100208.56
2018-12-29T17:38:24.590Z,100223.78
2018-12-29T17:40:56.356Z,100219.20
2018-12-29T17:43:28.492Z,100219.20
2018-12-29T17:46:00.087Z,100226.38
2018-12-29T17:48:31.474Z,100223.70
2018-12-29T17:51:03.159Z,100220.89
2018-12-29T17:53:34.843Z,100220.03
2018-12-29T17:56:06.411Z,100214.44
2018-12-29T17:58:37.999Z,100212.26
2018-12-29T18:01:09.662Z,100211.80
2018-12-29T18:03:40.971Z,100211.80
2018-12-29T18:06:12.452Z,100211.38
2018-12-29T18:08:43.615Z,100215.69
2018-12-29T18:11:14.881Z,100217.80
2018-12-29T18:13:46.991Z,100212.18
2018-12-29T18:16:18.575Z,100212.18
2018-12-29T18:18:50.224Z,100205.28
2018-12-29T18:21:21.468Z,100201.27
2018-12-29T18:23:53.064Z,100191.34
2018-12-29T18:26:24.385Z,100191.34
2018-12-29T18:28:56.074Z,100197.02
2018-12-29T18:31:27.341Z,100197.02
2018-12-29T18:33:58.775Z,100199.30
2018-12-29T18:36:30.573Z,100200.19
2018-12-29T18:39:02.944Z,100205.84
2018-12-29T18:41:34.916Z,100204.73
2018-12-29T18:44:07.507Z,100203.69
2018-12-29T18:46:39.299Z,100203.69
2018-12-29T18:49:10.694Z,100202.87
2018-12-29T18:51:42.428Z,100198.92
2018-12-29T18:54:13.906Z,100193.37
2018-12-29T18:56:45.805Z,100184.86
2018-12-29T18:59:18.005Z,100184.86
2018-12-29T19:01:57.370Z,100187.92
2018-12-29T19:04:22.756Z,100178.52
2018-12-29T19:06:54.439Z,100166.09
2018-12-29T19:09:25.785Z,100172.92
2018-12-29T19:11:57.335Z,100172.92
2018-12-29T19:14:29.165Z,100165.32
2018-12-29T19:17:00.615Z,100165.32
2018-12-29T19:19:32.319Z,100162.68
2018-12-29T19:22:03.591Z,100157.03
2018-12-29T19:24:34.915Z,100149.73
2018-12-29T19:27:06.515Z,100151.11
2018-12-29T19:29:38.160Z,100151.11
2018-12-29T19:32:09.939Z,100155.11
2018-12-29T19:34:41.900Z,100151.55
2018-12-29T19:37:13.773Z,100161.97
2018-12-29T19:39:45.747Z,100161.97
2018-12-29T19:42:17.108Z,100156.84
2018-12-29T19:44:49.026Z,100150.27
2018-12-29T19:47:20.411Z,100150.27
2018-12-29T19:49:53.788Z,100156.42
2018-12-29T19:52:25.549Z,100156.42
2018-12-29T19:54:56.876Z,100152.09
2018-12-29T19:57:28.978Z,100148.73
2018-12-29T20:00:00.397Z,100157.91
2018-12-29T20:02:32.165Z,100157.91
2018-12-29T20:05:03.904Z,100148.71
2018-12-29T20:07:35.491Z,100148.71
2018-12-29T20:10:07.248Z,100147.88
2018-12-29T20:12:39.725Z,100143.66
2018-12-29T20:15:11.449Z,100143.66
2018-12-29T20:17:43.029Z,100140.21
2018-12-29T20:20:14.398Z,100149.80
2018-12-29T20:22:45.886Z,100142.52
2018-12-29T20:25:17.552Z,100146.00
2018-12-29T20:27:49.094Z,100149.09
2018-12-29T20:30:20.588Z,100136.47
2018-12-29T20:32:58.991Z,100141.20
2018-12-29T20:35:24.928Z,100143.19
2018-12-29T20:37:56.877Z,100137.50
2018-12-29T20:40:28.979Z,100137.81
2018-12-29T20:43:00.373Z,100136.61
2018-12-29T20:45:32.060Z,100132.83
2018-12-29T20:48:03.603Z,100132.83
2018-12-29T20:50:34.944Z,100132.41
2018-12-29T20:53:06.514Z,100131.23
2018-12-29T20:55:37.884Z,100131.73
2018-12-29T20:58:09.179Z,100122.17
2018-12-29T21:00:40.722Z,100123.02
2018-12-29T21:03:12.468Z,100123.02
2018-12-29T21:05:43.805Z,100119.23
2018-12-29T21:08:15.315Z,100122.77
2018-12-29T21:10:46.522Z,100125.34
2018-12-29T21:13:18.045Z,100121.06
2018-12-29T21:15:49.835Z,100120.59
2018-12-29T21:18:21.484Z,100120.70
2018-12-29T21:20:52.724Z,100120.70
2018-12-29T21:23:24.551Z,100118.03
2018-12-29T21:25:55.803Z,100114.98
2018-12-29T21:28:27.456Z,100112.84
2018-12-29T21:30:59.020Z,100106.53
2018-12-29T21:33:30.778Z,100103.55
2018-12-29T21:36:02.043Z,100106.20
2018-12-29T21:38:33.448Z,100106.20
2018-12-29T21:41:05.449Z,100113.14
2018-12-29T21:43:37.014Z,100099.84
2018-12-29T21:46:09.014Z,100099.84
2018-12-29T21:48:40.407Z,100108.02
2018-12-29T21:51:11.751Z,100103.27
2018-12-29T21:53:42.992Z,100103.27
2018-12-29T21:56:14.689Z,100108.84
2018-12-29T21:58:46.046Z,100110.52
2018-12-29T22:01:17.526Z,100113.10
2018-12-29T22:03:48.880Z,100107.49
2018-12-29T22:06:21.821Z,100101.03
2018-12-29T22:08:53.332Z,100101.03
2018-12-29T22:11:24.997Z,100106.14
2018-12-29T22:13:56.659Z,100099.23
2018-12-29T22:16:28.488Z,100093.73
2018-12-29T22:19:00.072Z,100093.73
2018-12-29T22:21:31.786Z,100085.65
2018-12-29T22:24:03.288Z,100084.09
2018-12-29T22:26:35.007Z,100091.41
2018-12-29T22:29:06.467Z,100094.50
2018-12-29T22:31:37.925Z,100095.27
2018-12-29T22:34:10.196Z,100095.27
2018-12-29T22:36:41.725Z,100091.91
2018-12-29T22:39:13.530Z,100096.22
2018-12-29T22:41:45.456Z,100096.22
2018-12-29T22:44:17.280Z,100094.45
2018-12-29T22:46:49.439Z,100094.45
2018-12-29T22:49:21.017Z,100094.95
2018-12-29T22:51:52.436Z,100090.79
2018-12-29T22:54:24.039Z,100095.39
2018-12-29T22:56:56.025Z,100094.16
2018-12-29T22:59:27.339Z,100097.11
2018-12-29T23:01:58.929Z,100105.87
2018-12-29T23:04:30.663Z,100104.49
2018-12-29T23:07:02.362Z,100104.49
2018-12-29T23:09:33.794Z,100105.02
2018-12-29T23:12:06.423Z,100105.02
2018-12-29T23:14:37.987Z,100116.93
2018-12-29T23:17:10.349Z,100116.98
2018-12-29T23:19:42.014Z,100124.41
2018-12-29T23:22:13.564Z,100123.83
2018-12-29T23:24:45.331Z,100124.59
2018-12-29T23:27:17.086Z,100124.56
2018-12-29T23:29:48.505Z,100124.56
2018-12-29T23:32:19.886Z,100126.20
2018-12-29T23:34:51.142Z,100126.20
2018-12-29T23:37:22.578Z,100127.16
2018-12-29T23:39:54.502Z,100134.52
2018-12-29T23:42:25.895Z,100134.52
2018-12-29T23:44:57.319Z,100148.01
2018-12-29T23:47:29.542Z,100151.73
2018-12-29T23:50:00.866Z,100151.73
2018-12-29T23:52:32.352Z,100157.70
2018-12-29T23:55:03.754Z,100153.36
2018-12-29T23:57:35.313Z,100151.73
